METAR Data
IDs: Format: Raw Decoded Include TAF

Data at: 2315 UTC 30 Jun 2022

METAR for:KBNL (Barnwell Cnty, SC, US)
Text:KBNL 302315Z AUTO 08006KT 10SM -DZ CLR 26/23 A3014 RMK AO2
Temperature: 26.0°C ( 79°F)
Dewpoint: 23.0°C ( 73°F) [RH = 84%]
Pressure (altimeter):30.14 inches Hg (1020.7 mb)
Winds:from the E (80 degrees) at 7 MPH (6 knots; 3.1 m/s)
Visibility:10 or more sm (16+ km)
Ceiling:at least 12,000 feet AGL
Clouds:sky clear below 12,000 feet AGL
Weather:-DZ (light drizzle)
QC Flag:automated observation with no human augmentation

TAF for:KBNL (Barnwell Cnty, SC, US)
Text:No data found